LFMC

Le Luc-Le Cannet Airport

Airport
ICAO code
LFMC
Summary
ICAO Region
EUR
ICAO Territory
Location

, Provence-Alpes-Cote d'Azur

Serving
Le Luc
Elevation
265 ft
Coordinates
43° 23' 5" N , 6° 23' 14" E
Metar
Observation
LFMC 091930Z AUTO VRB02KT 6000 ////// 11/11 Q0999
Station
Le Luc
Date/Time
2022-12-09 19:30:00
Wind speed
02 kts
Lowest cloud amount
n/a
Temperature
11°C
Dew point
11°C
Humidity
100%
QNH
999 hPa
Weather condition
n/a

Runways

Designator Length Width Surface Rops
9/27 800 30 ASP No/No
13/31 1400 30 ASP No/No

Airport map

Aerial View

SKYbrary Partners:

Safety knowledge contributed by: